createdAt,value
2019-05-18T00:00:31.145Z,10.48
2019-05-18T00:03:20.580Z,8.90
2019-05-18T00:06:10.297Z,8.45
2019-05-18T00:08:59.346Z,7.58
2019-05-18T00:11:48.487Z,9.90
2019-05-18T00:14:37.441Z,9.73
2019-05-18T00:17:27.233Z,10.40
2019-05-18T00:20:16.414Z,9.98
2019-05-18T00:23:05.212Z,12.80
2019-05-18T00:25:54.371Z,7.62
2019-05-18T00:28:43.213Z,9.75
2019-05-18T00:31:31.749Z,9.20
2019-05-18T00:34:21.416Z,8.58
2019-05-18T00:37:10.680Z,7.67
2019-05-18T00:40:00.194Z,10.28
2019-05-18T00:42:49.741Z,10.03
2019-05-18T00:45:38.714Z,9.83
2019-05-18T00:48:28.376Z,11.08
2019-05-18T00:51:16.981Z,9.65
2019-05-18T00:54:06.134Z,9.63
2019-05-18T00:56:55.282Z,8.73
2019-05-18T00:59:43.917Z,10.43
2019-05-18T01:02:33.561Z,9.23
2019-05-18T01:05:22.393Z,8.93
2019-05-18T01:08:11.819Z,10.80
2019-05-18T01:11:00.396Z,9.48
2019-05-18T01:13:50.050Z,9.13
2019-05-18T01:16:39.647Z,10.10
2019-05-18T01:19:29.023Z,9.65
2019-05-18T01:22:18.306Z,9.38
2019-05-18T01:25:08.270Z,9.50
2019-05-18T01:27:58.070Z,9.43
2019-05-18T01:30:47.220Z,9.58
2019-05-18T01:33:36.698Z,9.70
2019-05-18T01:36:26.392Z,9.70
2019-05-18T01:39:15.882Z,10.48
2019-05-18T01:42:05.274Z,9.40
2019-05-18T01:44:54.261Z,11.25
2019-05-18T01:47:43.703Z,8.33
2019-05-18T01:50:33.121Z,9.23
2019-05-18T01:53:22.703Z,10.00
2019-05-18T01:56:11.945Z,9.38
2019-05-18T01:59:00.606Z,9.03
2019-05-18T02:01:50.280Z,8.88
2019-05-18T02:04:39.561Z,10.03
2019-05-18T02:07:28.649Z,10.20
2019-05-18T02:10:18.516Z,8.93
2019-05-18T02:13:07.603Z,8.35
2019-05-18T02:15:56.671Z,11.30
2019-05-18T02:18:46.766Z,9.03
2019-05-18T02:21:40.817Z,9.78
2019-05-18T02:24:30.462Z,9.45
2019-05-18T02:27:22.555Z,9.68
2019-05-18T02:30:17.578Z,9.28
2019-05-18T02:33:07.623Z,8.75
2019-05-18T02:36:04.398Z,11.20
2019-05-18T02:38:56.671Z,10.30
2019-05-18T02:41:47.192Z,10.00
2019-05-18T02:44:43.998Z,11.85
2019-05-18T02:47:34.421Z,10.48
2019-05-18T02:50:25.262Z,10.82
2019-05-18T02:53:18.490Z,9.28
2019-05-18T02:56:09.850Z,9.78
2019-05-18T02:59:04.371Z,11.60
2019-05-18T03:01:54.000Z,9.65
2019-05-18T03:04:43.370Z,10.50
2019-05-18T03:07:33.109Z,9.98
2019-05-18T03:10:23.239Z,9.80
2019-05-18T03:13:15.294Z,8.85
2019-05-18T03:16:05.402Z,10.43
2019-05-18T03:19:07.375Z,9.55
2019-05-18T03:21:48.308Z,10.78
2019-05-18T03:24:39.439Z,11.38
2019-05-18T03:27:29.753Z,10.43
2019-05-18T03:30:21.451Z,11.95
2019-05-18T03:33:13.903Z,10.75
2019-05-18T03:36:04.129Z,10.82
2019-05-18T03:38:57.143Z,9.53
2019-05-18T03:41:49.821Z,11.20
2019-05-18T03:44:41.406Z,11.30
2019-05-18T03:47:33.383Z,11.75
2019-05-18T03:50:24.101Z,10.72
2019-05-18T03:53:18.351Z,11.97
2019-05-18T03:56:12.450Z,11.40
2019-05-18T03:59:02.801Z,11.55
2019-05-18T04:01:52.918Z,9.90
2019-05-18T04:04:45.835Z,12.75
2019-05-18T04:07:35.107Z,10.75
2019-05-18T04:10:28.582Z,11.68
2019-05-18T04:13:20.189Z,10.18
2019-05-18T04:16:13.041Z,12.45
2019-05-18T04:19:03.681Z,12.30
2019-05-18T04:21:55.721Z,14.30
2019-05-18T04:24:46.158Z,15.63
2019-05-18T04:27:35.898Z,14.80
2019-05-18T04:30:25.617Z,15.10
2019-05-18T04:33:15.851Z,14.47
2019-05-18T04:36:09.013Z,14.95
2019-05-18T04:38:58.637Z,16.15
2019-05-18T04:41:49.760Z,16.02
2019-05-18T04:44:40.948Z,15.10
2019-05-18T04:47:31.159Z,15.55
2019-05-18T04:53:39.615Z,17.12
2019-05-18T04:56:33.158Z,12.93
2019-05-18T04:59:22.980Z,14.78
2019-05-18T05:02:15.778Z,12.65
2019-05-18T05:05:07.612Z,12.47
2019-05-18T05:07:58.601Z,11.20
2019-05-18T05:10:49.774Z,11.22
2019-05-18T05:13:42.035Z,17.45
2019-05-18T05:16:32.799Z,12.40
2019-05-18T05:19:24.002Z,11.55
2019-05-18T05:22:14.939Z,10.85
2019-05-18T05:25:07.244Z,10.88
2019-05-18T05:27:59.285Z,13.48
2019-05-18T05:30:52.725Z,15.38
2019-05-18T05:33:42.800Z,11.28
2019-05-18T05:36:35.433Z,13.15
2019-05-18T05:39:25.807Z,13.00
2019-05-18T05:42:15.452Z,13.78
2019-05-18T05:45:09.066Z,13.62
2019-05-18T05:48:02.577Z,14.20
2019-05-18T05:50:53.195Z,13.28
2019-05-18T05:53:45.171Z,14.33
2019-05-18T05:56:38.088Z,13.65
2019-05-18T05:59:28.883Z,13.68
2019-05-18T06:02:21.666Z,15.13
2019-05-18T06:05:23.114Z,16.12
2019-05-18T06:08:16.623Z,17.95
2019-05-18T06:11:08.153Z,17.20
2019-05-18T06:14:01.514Z,15.98
2019-05-18T06:16:55.272Z,19.32
2019-05-18T06:19:50.250Z,18.30
2019-05-18T06:22:40.287Z,18.15
2019-05-18T06:25:34.857Z,19.60
2019-05-18T06:28:29.080Z,18.25
2019-05-18T06:31:23.414Z,19.25
2019-05-18T06:34:15.381Z,18.98
2019-05-18T06:37:08.150Z,18.32
2019-05-18T06:39:57.731Z,18.50
2019-05-18T06:42:52.329Z,22.10
2019-05-18T06:45:47.266Z,20.20
2019-05-18T06:48:45.386Z,21.65
2019-05-18T06:51:38.659Z,21.23
2019-05-18T06:54:29.174Z,21.05
2019-05-18T06:57:22.685Z,20.82
2019-05-18T07:00:15.462Z,17.90
2019-05-18T07:03:05.940Z,17.23
2019-05-18T07:05:59.057Z,19.30
2019-05-18T07:08:51.410Z,17.62
2019-05-18T07:11:46.370Z,17.80
2019-05-18T07:14:37.918Z,21.62
2019-05-18T07:17:27.657Z,19.48
2019-05-18T07:20:19.531Z,22.35
2019-05-18T07:23:13.801Z,18.75
2019-05-18T07:26:07.269Z,18.90
2019-05-18T07:28:59.334Z,16.70
2019-05-18T07:31:54.626Z,24.37
2019-05-18T07:34:50.303Z,18.30
2019-05-18T07:37:49.739Z,18.52
2019-05-18T07:40:44.608Z,19.17
2019-05-18T07:43:38.350Z,17.75
2019-05-18T07:46:32.378Z,17.42
2019-05-18T07:49:26.308Z,20.48
2019-05-18T07:52:17.307Z,22.07
2019-05-18T07:55:13.125Z,19.92
2019-05-18T07:58:07.004Z,19.48
2019-05-18T08:01:07.575Z,18.85
2019-05-18T08:04:01.979Z,23.45
2019-05-18T08:06:54.754Z,16.67
2019-05-18T08:09:44.516Z,17.48
2019-05-18T08:12:38.735Z,19.77
2019-05-18T08:15:30.694Z,20.30
2019-05-18T08:18:22.760Z,21.17
2019-05-18T08:21:17.033Z,16.77
2019-05-18T08:24:20.289Z,16.75
2019-05-18T08:27:17.545Z,16.73
2019-05-18T08:30:11.609Z,22.60
2019-05-18T08:33:05.118Z,19.95
2019-05-18T08:35:56.294Z,20.32
2019-05-18T08:38:50.750Z,22.85
2019-05-18T08:41:43.621Z,18.48
2019-05-18T08:44:35.386Z,17.15
2019-05-18T08:47:30.139Z,19.57
2019-05-18T08:50:25.498Z,21.82
2019-05-18T08:53:15.929Z,18.27
2019-05-18T08:56:10.938Z,17.62
2019-05-18T09:02:17.969Z,17.62
2019-05-18T09:05:12.751Z,19.87
2019-05-18T09:08:08.099Z,25.52
2019-05-18T09:10:59.607Z,20.50
2019-05-18T09:13:52.552Z,22.42
2019-05-18T09:16:42.952Z,20.43
2019-05-18T09:19:34.342Z,16.97
2019-05-18T09:22:25.592Z,20.65
2019-05-18T09:25:16.747Z,19.00
2019-05-18T09:28:06.845Z,17.40
2019-05-18T09:31:00.779Z,19.57
2019-05-18T09:33:50.944Z,15.88
2019-05-18T09:36:41.766Z,16.93
2019-05-18T09:39:32.631Z,18.40
2019-05-18T09:42:27.874Z,16.27
2019-05-18T09:45:18.974Z,17.40
2019-05-18T09:48:12.287Z,17.30
2019-05-18T09:51:03.811Z,13.70
2019-05-18T09:53:54.213Z,16.87
2019-05-18T09:56:44.192Z,16.85
2019-05-18T09:59:35.665Z,18.57
2019-05-18T10:02:26.786Z,24.20
2019-05-18T10:05:19.623Z,16.65
2019-05-18T10:08:12.365Z,18.10
2019-05-18T10:11:09.045Z,17.23
2019-05-18T10:14:01.311Z,14.70
2019-05-18T10:16:52.269Z,17.57
2019-05-18T10:19:48.154Z,16.73
2019-05-18T10:22:55.498Z,16.85
2019-05-18T10:25:33.760Z,16.17
2019-05-18T10:28:30.867Z,16.90
2019-05-18T10:31:22.394Z,15.05
2019-05-18T10:34:18.108Z,19.50
2019-05-18T10:37:11.684Z,16.02
2019-05-18T10:40:01.775Z,16.65
2019-05-18T10:42:54.546Z,15.30
2019-05-18T10:45:46.837Z,14.83
2019-05-18T10:48:38.085Z,16.62
2019-05-18T10:51:34.719Z,15.20
2019-05-18T10:57:22.496Z,16.65
2019-05-18T11:00:22.150Z,13.20
2019-05-18T11:03:12.941Z,13.38
2019-05-18T11:06:10.105Z,16.05
2019-05-18T11:09:05.052Z,12.68
2019-05-18T11:12:11.516Z,14.20
2019-05-18T11:15:14.623Z,15.07
2019-05-18T11:18:10.737Z,16.67
2019-05-18T11:21:05.013Z,13.30
2019-05-18T11:23:56.931Z,15.35
2019-05-18T11:26:54.272Z,15.60
2019-05-18T11:29:45.817Z,16.07
2019-05-18T11:32:40.492Z,17.12
2019-05-18T11:35:33.871Z,17.27
2019-05-18T11:38:29.446Z,18.75
2019-05-18T11:41:19.181Z,17.80
2019-05-18T11:44:18.692Z,19.67
2019-05-18T11:47:17.501Z,18.77
2019-05-18T11:50:11.078Z,14.58
2019-05-18T11:53:02.035Z,17.80
2019-05-18T11:55:51.257Z,13.48
2019-05-18T11:58:41.546Z,15.65
2019-05-18T12:01:34.234Z,14.85
2019-05-18T12:04:27.126Z,16.20
2019-05-18T12:07:17.035Z,14.78
2019-05-18T12:10:07.839Z,15.20
2019-05-18T12:12:58.518Z,14.50
2019-05-18T12:15:49.681Z,13.38
2019-05-18T12:18:38.880Z,14.15
2019-05-18T12:21:29.229Z,12.95
2019-05-18T12:24:21.649Z,13.48
2019-05-18T12:27:12.079Z,12.23
2019-05-18T12:30:02.141Z,12.13
2019-05-18T12:32:54.664Z,13.90
2019-05-18T12:35:51.291Z,12.80
2019-05-18T12:38:44.073Z,13.08
2019-05-18T12:41:33.889Z,11.33
2019-05-18T12:44:24.102Z,14.58
2019-05-18T12:47:18.754Z,11.35
2019-05-18T12:50:11.103Z,8.95
2019-05-18T12:53:02.112Z,9.65
2019-05-18T12:55:54.601Z,10.60
2019-05-18T12:58:44.551Z,12.20
2019-05-18T13:01:34.123Z,13.03
2019-05-18T13:04:23.860Z,11.38
2019-05-18T13:07:13.465Z,11.40
2019-05-18T13:10:02.668Z,12.05
2019-05-18T13:12:52.847Z,10.98
2019-05-18T13:15:42.398Z,14.40
2019-05-18T13:18:31.719Z,15.78
2019-05-18T13:21:20.698Z,18.27
2019-05-18T13:24:10.882Z,13.43
2019-05-18T13:27:00.628Z,15.15
2019-05-18T13:29:50.038Z,16.42
2019-05-18T13:39:10.240Z,13.55
2019-05-18T13:42:01.696Z,17.57
2019-05-18T13:44:52.650Z,17.32
2019-05-18T13:47:46.147Z,17.75
2019-05-18T13:50:37.667Z,18.48
2019-05-18T13:53:27.307Z,17.25
2019-05-18T13:56:19.756Z,18.15
2019-05-18T13:59:10.363Z,18.48
2019-05-18T14:02:01.733Z,18.92
2019-05-18T14:05:06.263Z,21.93
2019-05-18T14:07:58.536Z,14.87
2019-05-18T14:10:49.445Z,15.63
2019-05-18T14:13:43.112Z,15.98
2019-05-18T14:16:40.795Z,13.88
2019-05-18T14:19:34.198Z,20.82
2019-05-18T14:22:28.607Z,22.82
2019-05-18T14:25:22.635Z,20.88
2019-05-18T14:28:23.416Z,19.98
2019-05-18T14:31:24.087Z,16.25
2019-05-18T15:29:06.556Z,17.02
2019-05-18T15:31:57.311Z,17.60
2019-05-18T15:34:46.918Z,15.93
2019-05-18T15:37:35.887Z,15.60
2019-05-18T15:40:24.601Z,13.78
2019-05-18T15:43:19.024Z,15.48
2019-05-18T15:46:09.064Z,14.23
2019-05-18T15:48:59.087Z,13.72
2019-05-18T15:51:48.313Z,10.32
2019-05-18T15:54:38.516Z,14.93
2019-05-18T15:57:28.805Z,20.43
2019-05-18T16:00:20.526Z,15.78
2019-05-18T16:03:12.452Z,18.75
2019-05-18T16:06:02.256Z,16.95
2019-05-18T16:08:51.150Z,18.75
2019-05-18T16:11:41.349Z,21.37
2019-05-18T16:14:30.734Z,18.40
2019-05-18T16:17:36.983Z,21.93
2019-05-18T16:20:14.651Z,20.75
2019-05-18T16:23:04.904Z,25.48
2019-05-18T16:25:54.869Z,23.25
2019-05-18T16:28:44.191Z,22.32
2019-05-18T16:31:34.458Z,25.95
2019-05-18T16:34:24.826Z,24.37
2019-05-18T16:37:13.950Z,27.67
2019-05-18T16:40:04.702Z,29.90
2019-05-18T16:42:55.800Z,27.52
2019-05-18T16:45:46.314Z,29.35
2019-05-18T16:48:39.292Z,28.52
2019-05-18T16:51:27.502Z,30.17
2019-05-18T16:54:17.740Z,27.30
2019-05-18T16:57:07.962Z,30.57
2019-05-18T16:59:58.173Z,27.17
2019-05-18T17:02:48.508Z,27.80
2019-05-18T17:05:39.315Z,31.57
2019-05-18T17:08:30.110Z,30.77
2019-05-18T17:11:20.721Z,23.12
2019-05-18T17:14:11.914Z,30.62
2019-05-18T17:17:04.041Z,30.68
2019-05-18T17:19:54.009Z,26.93
2019-05-18T17:22:47.463Z,29.45
2019-05-18T17:25:37.510Z,28.40
2019-05-18T17:28:30.255Z,30.32
2019-05-18T17:31:24.868Z,26.95
2019-05-18T17:34:14.797Z,30.02
2019-05-18T17:37:08.620Z,25.40
2019-05-18T17:39:58.813Z,30.90
2019-05-18T17:42:48.342Z,30.25
2019-05-18T17:45:38.092Z,30.30
2019-05-18T17:48:30.845Z,32.67
2019-05-18T17:51:23.034Z,32.60
2019-05-18T17:54:14.044Z,32.90
2019-05-18T17:57:08.463Z,35.45
2019-05-18T17:59:56.271Z,35.28
2019-05-18T18:02:48.241Z,32.55
2019-05-18T18:05:37.663Z,32.17
2019-05-18T18:08:29.678Z,33.75
2019-05-18T18:11:20.412Z,35.45
2019-05-18T18:14:09.921Z,37.28
2019-05-18T18:17:00.438Z,34.63
2019-05-18T18:19:49.891Z,37.03
2019-05-18T18:22:39.962Z,34.53
2019-05-18T18:25:34.288Z,32.90
2019-05-18T18:28:24.087Z,36.75
2019-05-18T18:31:15.125Z,37.08
2019-05-18T18:34:05.935Z,37.13
2019-05-18T18:36:56.101Z,40.65
2019-05-18T18:39:46.779Z,41.18
2019-05-18T18:42:39.960Z,35.98
2019-05-18T18:45:35.978Z,39.60
2019-05-18T18:48:26.580Z,37.42
2019-05-18T18:51:19.588Z,37.65
2019-05-18T18:54:19.114Z,36.25
2019-05-18T18:57:09.548Z,40.45
2019-05-18T19:00:01.649Z,37.90
2019-05-18T19:02:54.094Z,33.60
2019-05-18T19:05:46.826Z,37.28
2019-05-18T19:08:42.173Z,31.35
2019-05-18T19:11:36.230Z,38.20
2019-05-18T19:14:30.552Z,36.73
2019-05-18T19:17:27.626Z,34.83
2019-05-18T19:20:20.771Z,35.85
2019-05-18T19:23:15.609Z,35.55
2019-05-18T19:26:08.351Z,36.88
2019-05-18T19:28:58.507Z,36.95
2019-05-18T19:31:51.641Z,36.88
2019-05-18T19:34:48.491Z,37.33
2019-05-18T19:37:41.748Z,36.93
2019-05-18T19:40:31.579Z,39.65
2019-05-18T19:43:24.377Z,37.40
2019-05-18T19:46:18.637Z,37.40
2019-05-18T19:49:11.170Z,39.08
2019-05-18T19:52:06.593Z,37.95
2019-05-18T19:54:58.703Z,40.00
2019-05-18T19:57:52.628Z,38.25
2019-05-18T20:00:45.287Z,38.35
2019-05-18T20:03:39.477Z,34.50
2019-05-18T20:06:30.070Z,35.73
2019-05-18T20:09:20.955Z,39.10
2019-05-18T20:12:20.272Z,33.85
2019-05-18T20:15:24.137Z,37.70
2019-05-18T20:18:15.610Z,37.58
2019-05-18T20:21:09.919Z,41.18
2019-05-18T20:24:03.706Z,36.58
2019-05-18T20:26:56.246Z,41.15
2019-05-18T20:29:48.160Z,41.08
2019-05-18T20:32:37.812Z,42.58
2019-05-18T20:35:29.331Z,42.95
2019-05-18T20:38:22.780Z,43.25
2019-05-18T20:41:13.943Z,42.62
2019-05-18T20:44:03.077Z,41.23
2019-05-18T20:46:55.961Z,42.60
2019-05-18T20:49:48.159Z,40.05
2019-05-18T20:52:38.899Z,47.08
2019-05-18T20:55:31.948Z,45.88
2019-05-18T20:58:38.814Z,42.48
2019-05-18T21:01:17.317Z,47.48
2019-05-18T21:04:07.614Z,43.50
2019-05-18T21:06:58.314Z,44.30
2019-05-18T21:09:48.215Z,43.55
2019-05-18T21:12:38.635Z,44.50
2019-05-18T21:15:29.421Z,42.23
2019-05-18T21:18:19.064Z,40.60
2019-05-18T21:21:08.986Z,42.55
2019-05-18T21:24:01.302Z,43.42
2019-05-18T21:26:51.290Z,47.25
2019-05-18T21:29:42.515Z,43.83
2019-05-18T21:32:34.526Z,40.90
2019-05-18T21:35:23.769Z,43.63
2019-05-18T21:38:13.596Z,43.58
2019-05-18T21:41:03.865Z,44.53
2019-05-18T21:43:58.453Z,43.05
2019-05-18T21:46:50.330Z,46.60
2019-05-18T21:49:42.769Z,42.88
2019-05-18T21:52:35.550Z,47.67
2019-05-18T21:55:38.663Z,47.23
2019-05-18T21:58:34.941Z,48.13
2019-05-18T22:04:21.761Z,45.38
2019-05-18T22:07:14.869Z,52.47
2019-05-18T22:10:25.509Z,50.20
2019-05-18T22:13:07.904Z,49.18
2019-05-18T22:16:07.851Z,48.02
2019-05-18T22:19:12.298Z,53.70
2019-05-18T22:22:13.467Z,49.13
2019-05-18T22:25:31.893Z,47.08
2019-05-18T22:28:32.459Z,49.95
2019-05-18T22:31:22.206Z,46.60
2019-05-18T22:34:14.909Z,51.90
2019-05-18T22:37:14.182Z,44.77
2019-05-18T22:40:14.173Z,44.15
2019-05-18T22:43:12.084Z,49.33
2019-05-18T22:46:06.712Z,47.80
2019-05-18T22:49:10.768Z,51.65
2019-05-18T22:52:04.063Z,46.73
2019-05-18T22:54:55.242Z,46.68
2019-05-18T22:57:53.910Z,48.02
2019-05-18T23:00:42.562Z,51.60
2019-05-18T23:03:33.552Z,48.23
2019-05-18T23:06:31.152Z,51.42
2019-05-18T23:09:53.217Z,54.88
2019-05-18T23:12:52.610Z,58.28
2019-05-18T23:15:46.894Z,52.73
2019-05-18T23:18:36.854Z,53.33
2019-05-18T23:21:30.400Z,54.18
2019-05-18T23:24:20.591Z,49.00
2019-05-18T23:27:12.214Z,57.80
2019-05-18T23:30:04.438Z,60.50
2019-05-18T23:32:58.137Z,55.60
2019-05-18T23:35:52.301Z,53.45
2019-05-18T23:38:41.911Z,57.90
2019-05-18T23:41:36.442Z,59.03
2019-05-18T23:44:37.993Z,61.60
2019-05-18T23:47:30.344Z,60.03
2019-05-18T23:50:22.217Z,55.90
2019-05-18T23:53:16.067Z,59.90
2019-05-18T23:56:08.818Z,54.45
2019-05-18T23:58:59.373Z,52.90
